Time;durP1;ratioP1;P1;durP2;ratioP2;P2;SDS_P1;SDS_P2;PMS_P1;PMS_P2;Temp;Humidity;BMP_temperature;BMP_pressure;BME280_temperature;BME280_humidity;BME280_pressure;Samples;Min_cycle;Max_cycle;Signal;HPM_P1;HPM_P2
2022/10/17 00:00:41;;;;;;;;;;;13.30;99.90;;;;;;5096791;28;19916;-76
2022/10/17 00:03:07;;;;;;;;;;;13.30;99.90;;;;;;5086061;28;20032;-76
2022/10/17 00:05:32;;;;;;;;;;;13.20;99.90;;;;;;5091710;28;20268;-76
2022/10/17 00:07:58;;;;;;;;;;;13.30;99.90;;;;;;5073744;28;20676;-75
2022/10/17 00:10:23;;;;;;;;;;;13.20;99.90;;;;;;5093120;28;19913;-76
2022/10/17 00:12:49;;;;;;;;;;;13.10;99.90;;;;;;5071677;28;19918;-76
2022/10/17 00:15:16;;;;;;;;;;;13.10;99.90;;;;;;5091139;28;19943;-76
2022/10/17 00:17:42;;;;;;;;;;;13.10;99.90;;;;;;5068138;28;19947;-76
2022/10/17 00:20:07;;;;;;;;;;;13.10;99.90;;;;;;5097089;28;20339;-76
2022/10/17 00:22:33;;;;;;;;;;;13.10;99.90;;;;;;5088520;28;19916;-76
2022/10/17 00:24:58;;;;;;;;;;;13.00;99.90;;;;;;5100851;28;19915;-75
2022/10/17 00:27:24;;;;;;;;;;;13.00;99.90;;;;;;5092207;28;19912;-75
2022/10/17 00:29:50;;;;;;;;;;;13.00;99.90;;;;;;5100143;28;19918;-76
2022/10/17 00:32:15;;;;;;;;;;;13.00;99.90;;;;;;5099264;28;20074;-76
2022/10/17 00:34:41;;;;;;;;;;;13.10;99.90;;;;;;5086331;28;21890;-75
2022/10/17 00:37:06;;;;;;;;;;;13.20;99.90;;;;;;5092813;28;19916;-75
2022/10/17 00:39:32;;;;;;;;;;;13.20;99.90;;;;;;5098115;28;19912;-77
2022/10/17 00:41:58;;;;;;;;;;;13.30;99.90;;;;;;5092346;28;19969;-77
2022/10/17 00:44:29;;;;;;;;;;;13.30;99.90;;;;;;5087504;28;19946;-76
2022/10/17 00:47:04;;;;;;;;;;;13.30;99.90;;;;;;5093650;28;19999;-76
2022/10/17 00:49:31;;;;;;;;;;;13.30;99.90;;;;;;5089437;28;19912;-76
2022/10/17 00:52:01;;;;;;;;;;;13.40;99.90;;;;;;5072520;28;19920;-76
2022/10/17 00:54:32;;;;;;;;;;;13.40;99.90;;;;;;5092700;28;20002;-78
2022/10/17 00:56:58;;;;;;;;;;;13.40;99.90;;;;;;5091354;28;19912;-75
2022/10/17 00:59:24;;;;;;;;;;;13.50;99.90;;;;;;5082403;28;20002;-75
2022/10/17 01:01:58;;;;;;;;;;;13.50;99.90;;;;;;5094888;28;19912;-76
2022/10/17 01:04:24;;;;;;;;;;;13.60;99.90;;;;;;5089076;28;20218;-76
2022/10/17 01:06:50;;;;;;;;;;;13.60;99.90;;;;;;5074749;28;19913;-76
2022/10/17 01:09:15;;;;;;;;;;;13.60;99.90;;;;;;5094028;28;19999;-77
2022/10/17 01:11:41;;;;;;;;;;;13.50;99.90;;;;;;5072185;28;19916;-75
2022/10/17 01:14:19;;;;;;;;;;;13.50;99.90;;;;;;5097129;28;20016;-76
2022/10/17 01:16:53;;;;;;;;;;;13.60;99.90;;;;;;5089317;28;20356;-75
2022/10/17 01:19:18;;;;;;;;;;;13.60;99.90;;;;;;5065780;28;19986;-76
2022/10/17 01:22:02;;;;;;;;;;;13.60;99.90;;;;;;5076545;28;19916;-75
2022/10/17 01:24:36;;;;;;;;;;;13.70;99.90;;;;;;5074154;28;20358;-78
2022/10/17 01:27:17;;;;;;;;;;;13.80;99.90;;;;;;5098544;28;19919;-77
2022/10/17 01:30:01;;;;;;;;;;;13.90;99.90;;;;;;5091981;28;19922;-76
2022/10/17 01:32:33;;;;;;;;;;;13.90;99.90;;;;;;5087316;28;19927;-76
2022/10/17 01:35:05;;;;;;;;;;;13.90;99.90;;;;;;5094854;28;20297;-76
2022/10/17 01:37:33;;;;;;;;;;;14.00;99.90;;;;;;5082533;28;20391;-76
2022/10/17 01:40:19;;;;;;;;;;;14.00;99.90;;;;;;5071219;28;19916;-76
2022/10/17 01:42:53;;;;;;;;;;;14.00;99.90;;;;;;5081318;28;20343;-79
2022/10/17 01:45:30;;;;;;;;;;;14.00;99.90;;;;;;5082711;28;19962;-75
2022/10/17 01:47:56;;;;;;;;;;;14.00;99.90;;;;;;5085958;28;19916;-75
2022/10/17 01:50:24;;;;;;;;;;;14.00;99.90;;;;;;5091109;28;19916;-77
2022/10/17 01:52:52;;;;;;;;;;;14.00;99.90;;;;;;5088575;28;19963;-76
2022/10/17 01:55:19;;;;;;;;;;;14.00;99.90;;;;;;5071007;28;19962;-75
2022/10/17 01:57:48;;;;;;;;;;;14.00;99.90;;;;;;5073956;28;20307;-77
2022/10/17 02:00:16;;;;;;;;;;;14.00;99.90;;;;;;5068029;28;19912;-76
2022/10/17 02:02:43;;;;;;;;;;;14.00;99.90;;;;;;5087447;28;20311;-77
2022/10/17 02:05:09;;;;;;;;;;;14.10;99.90;;;;;;5085559;28;19964;-76
2022/10/17 02:07:34;;;;;;;;;;;14.10;99.90;;;;;;5086708;28;19955;-77
2022/10/17 02:10:00;;;;;;;;;;;14.10;99.90;;;;;;5092062;28;19964;-75
2022/10/17 02:12:49;;;;;;;;;;;14.10;99.90;;;;;;5069513;28;20312;-80
2022/10/17 02:15:33;;;;;;;;;;;14.20;99.90;;;;;;5067602;28;20011;-76
2022/10/17 02:18:17;;;;;;;;;;;14.20;99.90;;;;;;5077158;28;20326;-76
2022/10/17 02:20:52;;;;;;;;;;;14.20;99.90;;;;;;5071413;28;19912;-76
2022/10/17 02:23:23;;;;;;;;;;;14.30;99.90;;;;;;5095033;28;20006;-76
2022/10/17 02:26:05;;;;;;;;;;;14.20;99.90;;;;;;5070609;28;19923;-74
2022/10/17 02:28:37;;;;;;;;;;;14.30;99.90;;;;;;5078729;28;19928;-76
2022/10/17 02:31:02;;;;;;;;;;;14.20;99.90;;;;;;5084321;28;19916;-77
2022/10/17 02:33:31;;;;;;;;;;;14.20;99.90;;;;;;5084266;28;19935;-75
2022/10/17 02:35:59;;;;;;;;;;;14.30;99.90;;;;;;5092413;28;19920;-76
2022/10/17 02:38:25;;;;;;;;;;;14.30;99.90;;;;;;5090773;28;19912;-76
2022/10/17 02:40:51;;;;;;;;;;;14.30;99.90;;;;;;5094168;28;19916;-76
2022/10/17 02:43:17;;;;;;;;;;;14.30;99.90;;;;;;5100395;28;19912;-76
2022/10/17 02:45:43;;;;;;;;;;;14.30;99.90;;;;;;5095138;28;20007;-77
2022/10/17 02:48:25;;;;;;;;;;;14.30;99.90;;;;;;5095673;28;19916;-75
2022/10/17 02:50:56;;;;;;;;;;;14.30;99.90;;;;;;5071913;28;19930;-77
2022/10/17 02:53:27;;;;;;;;;;;14.40;99.90;;;;;;5080724;28;19988;-77
2022/10/17 02:55:55;;;;;;;;;;;14.40;99.90;;;;;;5086254;28;19916;-77
2022/10/17 02:58:24;;;;;;;;;;;14.40;99.90;;;;;;5063191;28;20311;-77
2022/10/17 03:00:50;;;;;;;;;;;14.40;99.90;;;;;;5080992;28;19919;-75
2022/10/17 03:03:29;;;;;;;;;;;14.50;99.90;;;;;;5068384;28;19959;-79
2022/10/17 03:05:54;;;;;;;;;;;14.50;99.90;;;;;;5083188;28;19912;-76
2022/10/17 03:08:20;;;;;;;;;;;14.60;99.90;;;;;;5084498;28;19947;-78
2022/10/17 03:10:46;;;;;;;;;;;14.60;99.90;;;;;;5092957;28;19916;-76
2022/10/17 03:13:12;;;;;;;;;;;14.70;99.90;;;;;;5083521;28;20200;-75
2022/10/17 03:15:37;;;;;;;;;;;14.80;99.90;;;;;;5090791;28;19927;-75
2022/10/17 03:18:03;;;;;;;;;;;14.80;99.90;;;;;;5085259;28;19948;-75
2022/10/17 03:20:28;;;;;;;;;;;14.90;99.90;;;;;;5075860;28;20277;-75
2022/10/17 03:22:54;;;;;;;;;;;15.00;99.90;;;;;;5086134;28;19919;-76
2022/10/17 03:25:19;;;;;;;;;;;15.00;99.90;;;;;;5095794;28;19920;-78
2022/10/17 03:27:45;;;;;;;;;;;15.00;99.90;;;;;;5081884;28;20238;-78
2022/10/17 03:30:10;;;;;;;;;;;15.10;99.90;;;;;;5098063;28;19916;-79
2022/10/17 03:32:36;;;;;;;;;;;15.00;99.90;;;;;;5070373;28;19919;-76
2022/10/17 03:35:02;;;;;;;;;;;15.10;99.90;;;;;;5094224;28;19920;-80
2022/10/17 03:37:27;;;;;;;;;;;15.10;99.90;;;;;;5077950;28;19943;-76
2022/10/17 03:39:53;;;;;;;;;;;15.10;99.90;;;;;;5090757;28;20216;-75
2022/10/17 03:42:18;;;;;;;;;;;15.10;99.90;;;;;;5088064;28;19916;-76
2022/10/17 03:44:44;;;;;;;;;;;15.10;99.90;;;;;;5077832;28;20307;-77
2022/10/17 03:47:09;;;;;;;;;;;15.10;99.90;;;;;;5089956;28;19912;-77
2022/10/17 03:49:35;;;;;;;;;;;15.10;99.90;;;;;;5101055;28;19915;-77
2022/10/17 03:52:00;;;;;;;;;;;15.10;99.90;;;;;;5094126;28;19916;-78
2022/10/17 03:54:26;;;;;;;;;;;15.10;99.90;;;;;;5086753;28;19911;-77
2022/10/17 03:56:52;;;;;;;;;;;15.10;99.90;;;;;;5074050;28;19947;-77
2022/10/17 03:59:17;;;;;;;;;;;15.10;99.90;;;;;;5087048;28;19918;-77
2022/10/17 04:01:43;;;;;;;;;;;15.10;99.90;;;;;;5098318;28;19912;-79
2022/10/17 04:04:08;;;;;;;;;;;15.10;99.90;;;;;;5094356;28;19923;-77
2022/10/17 04:06:34;;;;;;;;;;;15.10;99.90;;;;;;5085576;28;20311;-78
2022/10/17 04:09:00;;;;;;;;;;;15.10;99.90;;;;;;5088142;28;20226;-78
2022/10/17 04:11:25;;;;;;;;;;;15.10;99.90;;;;;;5084930;28;19912;-80
2022/10/17 04:13:52;;;;;;;;;;;15.10;99.90;;;;;;5104607;28;19919;-77
2022/10/17 04:16:18;;;;;;;;;;;15.10;99.90;;;;;;5095072;28;19965;-78
2022/10/17 04:18:43;;;;;;;;;;;15.10;99.90;;;;;;5104567;28;19916;-77
2022/10/17 04:21:09;;;;;;;;;;;15.10;99.90;;;;;;5110568;28;19912;-76
2022/10/17 04:23:35;;;;;;;;;;;15.10;99.90;;;;;;5101125;28;20332;-77
2022/10/17 04:26:02;;;;;;;;;;;15.10;99.90;;;;;;5090794;28;20383;-76
2022/10/17 04:28:28;;;;;;;;;;;15.20;99.90;;;;;;5098555;28;19966;-78
2022/10/17 04:30:57;;;;;;;;;;;15.20;99.90;;;;;;5110184;28;19919;-79
2022/10/17 04:33:23;;;;;;;;;;;15.30;99.90;;;;;;5103223;28;19983;-76
2022/10/17 04:35:55;;;;;;;;;;;15.30;99.90;;;;;;5090306;28;20311;-79
2022/10/17 04:38:21;;;;;;;;;;;15.40;99.90;;;;;;5085077;28;19912;-76
2022/10/17 04:40:47;;;;;;;;;;;15.40;99.90;;;;;;5099728;28;20330;-78
2022/10/17 04:43:12;;;;;;;;;;;15.50;99.90;;;;;;5068256;28;19916;-79
2022/10/17 04:45:38;;;;;;;;;;;15.50;99.90;;;;;;5098953;28;19912;-77
2022/10/17 04:48:03;;;;;;;;;;;15.60;99.90;;;;;;5089612;28;19919;-80
2022/10/17 04:50:29;;;;;;;;;;;15.60;99.90;;;;;;5073551;28;19916;-78
2022/10/17 04:52:54;;;;;;;;;;;15.70;99.90;;;;;;5094995;28;19912;-80
2022/10/17 04:55:20;;;;;;;;;;;15.80;99.90;;;;;;5087163;28;20215;-77
2022/10/17 04:57:45;;;;;;;;;;;15.90;99.90;;;;;;5095942;28;19923;-76
2022/10/17 05:00:11;;;;;;;;;;;15.90;99.90;;;;;;5068051;28;20003;-78
2022/10/17 05:02:36;;;;;;;;;;;15.90;99.90;;;;;;5087379;28;19916;-76
2022/10/17 05:05:02;;;;;;;;;;;16.00;99.90;;;;;;5060176;28;19927;-78
2022/10/17 05:07:28;;;;;;;;;;;16.10;99.90;;;;;;5085273;28;19912;-77
2022/10/17 05:09:53;;;;;;;;;;;16.10;99.90;;;;;;5067679;28;20215;-77
2022/10/17 05:12:18;;;;;;;;;;;16.10;99.90;;;;;;5088326;28;19917;-81
2022/10/17 05:14:44;;;;;;;;;;;16.20;99.90;;;;;;5075709;28;19950;-81
2022/10/17 05:17:09;;;;;;;;;;;16.20;99.90;;;;;;5089040;28;20007;-76
2022/10/17 05:19:35;;;;;;;;;;;16.20;99.90;;;;;;5089808;28;20269;-77
2022/10/17 05:22:00;;;;;;;;;;;16.20;99.90;;;;;;5093587;28;19908;-75
2022/10/17 05:24:26;;;;;;;;;;;16.20;99.90;;;;;;5095007;28;19962;-75
2022/10/17 05:26:52;;;;;;;;;;;16.30;99.90;;;;;;5097070;28;20257;-76
2022/10/17 05:29:17;;;;;;;;;;;16.30;99.90;;;;;;5094273;28;19913;-78
2022/10/17 05:31:43;;;;;;;;;;;16.30;99.90;;;;;;5076114;28;19947;-76
2022/10/17 05:34:08;;;;;;;;;;;16.30;99.90;;;;;;5100387;28;19920;-77
2022/10/17 05:36:34;;;;;;;;;;;16.20;99.90;;;;;;5097220;28;19923;-76
2022/10/17 05:38:59;;;;;;;;;;;16.30;99.90;;;;;;5095809;28;20299;-77
2022/10/17 05:41:24;;;;;;;;;;;16.20;99.90;;;;;;5090905;28;19948;-79
2022/10/17 05:43:50;;;;;;;;;;;16.20;99.90;;;;;;5090104;28;19958;-77
2022/10/17 05:46:16;;;;;;;;;;;16.30;99.90;;;;;;5091264;28;19913;-77
2022/10/17 05:48:41;;;;;;;;;;;16.30;99.90;;;;;;5077079;28;19913;-77
2022/10/17 05:51:08;;;;;;;;;;;16.30;99.90;;;;;;5092181;28;20328;-75
2022/10/17 05:53:34;;;;;;;;;;;16.30;99.90;;;;;;5100028;28;19916;-77
2022/10/17 05:56:01;;;;;;;;;;;16.30;99.90;;;;;;5092521;28;20250;-76
2022/10/17 05:58:26;;;;;;;;;;;16.30;99.90;;;;;;5091804;28;19916;-76
2022/10/17 06:00:56;;;;;;;;;;;16.30;99.90;;;;;;5082184;28;20211;-77
2022/10/17 06:03:22;;;;;;;;;;;16.30;99.90;;;;;;5094960;28;19973;-77
2022/10/17 06:05:48;;;;;;;;;;;16.20;99.90;;;;;;5071358;28;19920;-79
2022/10/17 06:08:13;;;;;;;;;;;16.20;99.90;;;;;;5084840;28;19921;-78
2022/10/17 06:10:39;;;;;;;;;;;16.10;99.90;;;;;;5086413;28;19916;-77
2022/10/17 06:13:04;;;;;;;;;;;16.10;99.90;;;;;;5069628;28;20162;-78
2022/10/17 06:15:29;;;;;;;;;;;16.00;99.90;;;;;;5079568;28;19939;-77
2022/10/17 06:17:55;;;;;;;;;;;16.00;99.90;;;;;;5086873;28;19916;-77
2022/10/17 06:20:20;;;;;;;;;;;15.90;99.90;;;;;;5094141;28;19912;-77
2022/10/17 06:22:46;;;;;;;;;;;15.90;99.90;;;;;;5092580;28;19920;-78
2022/10/17 06:25:12;;;;;;;;;;;15.80;99.90;;;;;;5083729;28;19912;-77
2022/10/17 06:27:37;;;;;;;;;;;15.70;99.90;;;;;;5060010;28;20335;-77
2022/10/17 06:30:03;;;;;;;;;;;15.70;99.90;;;;;;5100985;28;19915;-77
2022/10/17 06:32:28;;;;;;;;;;;15.70;99.90;;;;;;5059499;28;20307;-77
2022/10/17 06:34:54;;;;;;;;;;;15.70;99.90;;;;;;5070912;28;19943;-78
2022/10/17 06:37:19;;;;;;;;;;;15.70;99.90;;;;;;5082168;28;20287;-78
2022/10/17 06:39:45;;;;;;;;;;;15.70;99.90;;;;;;5070777;28;19921;-79
2022/10/17 06:42:10;;;;;;;;;;;15.70;99.90;;;;;;5102477;28;19919;-79
2022/10/17 06:44:36;;;;;;;;;;;15.70;99.90;;;;;;5093733;28;19919;-79
2022/10/17 06:47:01;;;;;;;;;;;15.70;99.90;;;;;;5096805;28;19912;-78
2022/10/17 06:49:27;;;;;;;;;;;15.80;99.90;;;;;;5092406;28;20494;-81
2022/10/17 06:51:53;;;;;;;;;;;15.80;99.90;;;;;;5069268;28;20011;-78
2022/10/17 06:54:18;;;;;;;;;;;15.80;99.90;;;;;;5083145;28;19912;-78
2022/10/17 06:56:44;;;;;;;;;;;15.80;99.90;;;;;;5080137;28;20424;-78
2022/10/17 06:59:10;;;;;;;;;;;15.80;99.90;;;;;;5095237;28;20022;-79
2022/10/17 07:01:35;;;;;;;;;;;15.90;99.90;;;;;;5083245;28;20007;-79
2022/10/17 07:04:01;;;;;;;;;;;15.90;99.90;;;;;;5061791;28;20294;-79
2022/10/17 07:06:26;;;;;;;;;;;15.90;99.90;;;;;;5066588;28;19908;-82
2022/10/17 07:08:54;;;;;;;;;;;16.00;99.90;;;;;;5064320;28;19912;-80
2022/10/17 07:11:21;;;;;;;;;;;16.00;99.90;;;;;;5065882;28;20015;-78
2022/10/17 07:13:46;;;;;;;;;;;15.90;99.90;;;;;;5086020;28;19912;-77
2022/10/17 07:16:13;;;;;;;;;;;15.90;99.90;;;;;;5074340;28;19916;-77
2022/10/17 07:18:39;;;;;;;;;;;16.00;99.90;;;;;;5090724;28;19908;-78
2022/10/17 07:21:05;;;;;;;;;;;16.00;99.90;;;;;;5064804;28;19927;-78
2022/10/17 07:23:30;;;;;;;;;;;16.00;99.90;;;;;;5094463;28;19916;-78
2022/10/17 07:26:01;;;;;;;;;;;16.00;99.90;;;;;;5087410;28;19935;-78
2022/10/17 07:28:27;;;;;;;;;;;16.00;99.90;;;;;;5100404;28;19919;-78
2022/10/17 07:30:53;;;;;;;;;;;16.00;99.90;;;;;;5072127;28;19923;-76
2022/10/17 07:33:19;;;;;;;;;;;16.10;99.90;;;;;;5064160;28;19924;-78
2022/10/17 07:35:44;;;;;;;;;;;16.10;99.90;;;;;;5087523;28;19916;-77
2022/10/17 07:38:10;;;;;;;;;;;16.10;99.90;;;;;;5080804;28;19916;-77
2022/10/17 07:40:36;;;;;;;;;;;16.10;99.90;;;;;;5060036;28;20240;-79
2022/10/17 07:43:02;;;;;;;;;;;16.10;99.90;;;;;;5072113;28;19919;-80
2022/10/17 07:45:27;;;;;;;;;;;16.10;99.90;;;;;;5092724;28;19985;-81
2022/10/17 07:47:56;;;;;;;;;;;16.20;99.90;;;;;;5098795;28;19957;-79
2022/10/17 07:50:22;;;;;;;;;;;16.20;99.90;;;;;;5100584;28;19912;-79
2022/10/17 07:52:47;;;;;;;;;;;16.20;99.90;;;;;;5072923;28;19920;-79
2022/10/17 07:55:13;;;;;;;;;;;16.20;99.90;;;;;;5085308;28;19924;-78
2022/10/17 07:57:39;;;;;;;;;;;16.30;99.90;;;;;;5057597;28;19920;-81
2022/10/17 08:00:05;;;;;;;;;;;16.30;99.90;;;;;;5066530;28;19908;-78
2022/10/17 08:02:31;;;;;;;;;;;16.30;99.90;;;;;;5084485;28;19917;-80
2022/10/17 08:04:56;;;;;;;;;;;16.30;99.90;;;;;;5084788;28;20304;-83
2022/10/17 08:07:22;;;;;;;;;;;16.30;99.90;;;;;;5072111;28;19915;-81
2022/10/17 08:09:48;;;;;;;;;;;16.30;99.90;;;;;;5109513;28;20251;-79
2022/10/17 08:12:14;;;;;;;;;;;16.40;99.90;;;;;;5106018;28;20310;-80
2022/10/17 08:14:42;;;;;;;;;;;16.40;99.90;;;;;;5106441;28;19922;-77
2022/10/17 08:17:08;;;;;;;;;;;16.40;99.90;;;;;;5106808;28;19912;-78
2022/10/17 08:19:33;;;;;;;;;;;16.40;99.90;;;;;;5109405;28;19927;-77
2022/10/17 08:22:00;;;;;;;;;;;16.40;99.90;;;;;;5103663;28;20002;-75
2022/10/17 08:24:26;;;;;;;;;;;16.40;99.90;;;;;;5088725;28;19922;-77
2022/10/17 08:26:52;;;;;;;;;;;16.40;99.90;;;;;;5096407;28;20212;-77
2022/10/17 08:29:18;;;;;;;;;;;16.40;99.90;;;;;;5110396;28;19912;-77
2022/10/17 08:31:43;;;;;;;;;;;16.40;99.90;;;;;;5105031;28;20326;-75
2022/10/17 08:34:09;;;;;;;;;;;16.40;99.90;;;;;;5107059;28;20261;-77
2022/10/17 08:36:35;;;;;;;;;;;16.40;99.90;;;;;;5101180;28;19920;-75
2022/10/17 08:39:01;;;;;;;;;;;16.30;99.90;;;;;;5106650;28;19919;-75
2022/10/17 08:41:47;;;;;;;;;;;16.40;99.90;;;;;;5112938;28;19912;-75
2022/10/17 08:44:31;;;;;;;;;;;16.40;99.90;;;;;;5107468;28;19912;-75
2022/10/17 08:46:58;;;;;;;;;;;16.40;99.90;;;;;;5106459;28;20077;-76
2022/10/17 08:49:36;;;;;;;;;;;16.40;99.90;;;;;;5109256;28;19912;-76
2022/10/17 08:52:03;;;;;;;;;;;16.40;99.90;;;;;;5062482;28;19966;-75
2022/10/17 08:54:36;;;;;;;;;;;16.40;99.90;;;;;;5100887;28;20303;-75
2022/10/17 08:57:02;;;;;;;;;;;16.40;99.90;;;;;;5102821;28;19916;-76
2022/10/17 08:59:28;;;;;;;;;;;16.40;99.90;;;;;;5108484;28;20371;-75
2022/10/17 09:02:12;;;;;;;;;;;16.40;99.90;;;;;;5098578;28;19920;-74
2022/10/17 09:04:47;;;;;;;;;;;16.50;99.90;;;;;;5083559;28;20021;-74
2022/10/17 09:07:12;;;;;;;;;;;16.50;99.90;;;;;;5096315;28;20004;-75
2022/10/17 09:09:41;;;;;;;;;;;16.50;99.90;;;;;;5091574;28;19955;-75
2022/10/17 09:12:06;;;;;;;;;;;16.50;99.90;;;;;;5080724;28;19916;-74
2022/10/17 09:14:35;;;;;;;;;;;16.50;99.90;;;;;;5077043;28;19919;-75
2022/10/17 09:17:14;;;;;;;;;;;16.60;99.90;;;;;;5088569;28;19955;-74
2022/10/17 09:19:44;;;;;;;;;;;16.60;99.90;;;;;;5066821;28;19912;-75
2022/10/17 09:22:12;;;;;;;;;;;16.60;99.90;;;;;;5101027;28;19923;-74
2022/10/17 09:24:41;;;;;;;;;;;16.60;99.90;;;;;;5107699;28;19920;-74
2022/10/17 09:27:26;;;;;;;;;;;16.60;99.90;;;;;;5101765;28;19920;-75
2022/10/17 09:29:54;;;;;;;;;;;16.60;99.90;;;;;;5069730;28;19935;-75
2022/10/17 09:32:23;;;;;;;;;;;16.60;99.90;;;;;;5102701;28;20370;-75
2022/10/17 09:34:50;;;;;;;;;;;16.70;99.90;;;;;;5104970;28;20317;-75
2022/10/17 09:37:16;;;;;;;;;;;16.70;99.90;;;;;;5105206;28;20326;-74
2022/10/17 09:39:43;;;;;;;;;;;16.70;99.90;;;;;;5099333;28;19912;-74
2022/10/17 09:42:11;;;;;;;;;;;16.70;99.90;;;;;;5103535;28;19912;-74
2022/10/17 09:44:46;;;;;;;;;;;16.70;99.90;;;;;;5100391;28;19938;-75
2022/10/17 09:47:16;;;;;;;;;;;16.70;99.90;;;;;;5103022;28;20010;-74
2022/10/17 09:49:43;;;;;;;;;;;16.80;99.90;;;;;;5096612;28;19912;-75
2022/10/17 09:52:15;;;;;;;;;;;16.80;99.90;;;;;;5087161;28;19941;-74
2022/10/17 09:54:51;;;;;;;;;;;16.80;99.90;;;;;;5090753;28;20046;-74
2022/10/17 09:57:18;;;;;;;;;;;16.80;99.90;;;;;;5092041;28;19916;-75
2022/10/17 09:59:45;;;;;;;;;;;16.80;99.90;;;;;;5096585;28;19912;-74
2022/10/17 10:02:19;;;;;;;;;;;16.80;99.90;;;;;;5100289;28;19926;-75
2022/10/17 10:04:50;;;;;;;;;;;16.80;99.90;;;;;;5096814;28;19915;-75
2022/10/17 10:07:18;;;;;;;;;;;16.80;99.90;;;;;;5100558;28;20303;-74
2022/10/17 10:09:45;;;;;;;;;;;16.80;99.90;;;;;;5103160;28;19912;-75
2022/10/17 10:12:21;;;;;;;;;;;16.80;99.90;;;;;;5086156;28;19920;-74
2022/10/17 10:14:47;;;;;;;;;;;16.80;99.90;;;;;;5080299;28;19916;-74
2022/10/17 10:17:27;;;;;;;;;;;16.80;99.90;;;;;;5101918;28;20238;-74
2022/10/17 10:19:53;;;;;;;;;;;16.80;99.90;;;;;;5067961;28;19981;-76
2022/10/17 10:22:22;;;;;;;;;;;16.80;99.90;;;;;;5089625;28;20310;-76
2022/10/17 10:25:07;;;;;;;;;;;16.80;99.90;;;;;;5087418;28;20205;-75
2022/10/17 10:27:33;;;;;;;;;;;16.80;99.90;;;;;;5069381;28;19951;-75
2022/10/17 10:29:59;;;;;;;;;;;16.80;99.90;;;;;;5080957;28;20021;-74
2022/10/17 10:32:29;;;;;;;;;;;16.70;99.90;;;;;;5084926;28;19929;-74
2022/10/17 10:34:55;;;;;;;;;;;16.70;99.90;;;;;;5061791;28;20013;-74
2022/10/17 10:37:22;;;;;;;;;;;16.70;99.90;;;;;;5066457;28;19956;-74
2022/10/17 10:39:49;;;;;;;;;;;16.70;99.90;;;;;;5070573;28;19940;-76
2022/10/17 10:42:31;;;;;;;;;;;16.80;99.90;;;;;;5093332;28;19920;-78
2022/10/17 10:45:00;;;;;;;;;;;16.70;99.90;;;;;;5092252;28;19920;-74
2022/10/17 10:47:27;;;;;;;;;;;16.70;99.90;;;;;;5093209;28;19916;-77
2022/10/17 10:50:12;;;;;;;;;;;16.70;99.90;;;;;;5078333;28;19912;-75
2022/10/17 10:52:41;;;;;;;;;;;16.60;99.90;;;;;;5085841;28;19940;-75
2022/10/17 10:55:27;;;;;;;;;;;16.50;99.90;;;;;;5082865;28;19923;-77
2022/10/17 10:57:55;;;;;;;;;;;16.50;99.90;;;;;;5094075;28;20256;-78
2022/10/17 11:00:23;;;;;;;;;;;16.40;99.90;;;;;;5101064;28;19912;-80
2022/10/17 11:03:12;;;;;;;;;;;16.40;99.90;;;;;;5098405;28;19920;-76
2022/10/17 11:05:41;;;;;;;;;;;16.40;99.90;;;;;;5078495;28;19912;-76
2022/10/17 11:08:13;;;;;;;;;;;16.40;99.90;;;;;;5101388;28;19916;-75
2022/10/17 11:10:43;;;;;;;;;;;16.40;99.90;;;;;;5099405;28;19923;-75
2022/10/17 11:13:08;;;;;;;;;;;16.40;99.90;;;;;;5096375;28;19919;-76
2022/10/17 11:15:34;;;;;;;;;;;16.40;99.90;;;;;;5097679;28;19924;-77
2022/10/17 11:18:07;;;;;;;;;;;16.40;99.90;;;;;;5088102;28;19951;-77
2022/10/17 11:20:37;;;;;;;;;;;16.30;99.90;;;;;;5083542;28;19920;-78
2022/10/17 11:23:08;;;;;;;;;;;16.20;99.90;;;;;;5082454;28;19973;-79
2022/10/17 11:25:35;;;;;;;;;;;16.20;99.90;;;;;;5101679;28;19961;-82
2022/10/17 11:28:02;;;;;;;;;;;16.10;99.90;;;;;;5102974;28;19912;-78
2022/10/17 11:30:32;;;;;;;;;;;15.90;99.90;;;;;;5103463;28;20460;-77
2022/10/17 11:32:59;;;;;;;;;;;15.70;99.90;;;;;;5091240;28;19924;-76
2022/10/17 11:35:28;;;;;;;;;;;15.60;99.90;;;;;;5065206;28;20002;-78
2022/10/17 11:38:08;;;;;;;;;;;15.50;99.90;;;;;;5090868;28;19919;-76
2022/10/17 11:40:35;;;;;;;;;;;15.40;99.90;;;;;;5094687;28;19911;-76
2022/10/17 11:43:14;;;;;;;;;;;15.20;99.90;;;;;;5081859;28;19911;-76
2022/10/17 11:45:41;;;;;;;;;;;15.20;99.90;;;;;;5099727;28;19938;-75
2022/10/17 11:48:20;;;;;;;;;;;15.20;99.90;;;;;;5101053;28;19912;-77
2022/10/17 11:50:50;;;;;;;;;;;15.10;99.90;;;;;;5089651;28;19916;-74
2022/10/17 11:53:21;;;;;;;;;;;15.10;99.90;;;;;;5095209;28;20216;-75
2022/10/17 11:55:48;;;;;;;;;;;15.10;99.90;;;;;;5088393;28;19912;-75
2022/10/17 11:58:23;;;;;;;;;;;15.20;99.90;;;;;;5073110;28;19923;-74
2022/10/17 12:01:11;;;;;;;;;;;15.20;99.90;;;;;;5092802;28;19908;-75
2022/10/17 12:03:41;;;;;;;;;;;15.20;99.90;;;;;;5073613;28;19912;-74
2022/10/17 12:06:11;;;;;;;;;;;15.20;99.90;;;;;;5086831;28;19909;-75
2022/10/17 12:08:43;;;;;;;;;;;15.20;99.90;;;;;;5091081;28;19916;-75
2022/10/17 12:11:26;;;;;;;;;;;15.30;99.90;;;;;;5096592;28;20299;-75
2022/10/17 12:13:53;;;;;;;;;;;15.20;99.90;;;;;;5092195;28;19918;-75
2022/10/17 12:16:18;;;;;;;;;;;15.20;99.90;;;;;;5096548;28;20015;-75
2022/10/17 12:18:45;;;;;;;;;;;15.20;99.90;;;;;;5095164;28;20002;-75
2022/10/17 12:21:10;;;;;;;;;;;15.30;99.90;;;;;;5090197;28;20219;-74
2022/10/17 12:23:37;;;;;;;;;;;15.30;99.90;;;;;;5068245;28;19995;-74
2022/10/17 12:26:05;;;;;;;;;;;15.30;99.90;;;;;;5076439;28;19908;-74
2022/10/17 12:28:32;;;;;;;;;;;15.40;99.90;;;;;;5087595;28;19924;-74
2022/10/17 12:31:01;;;;;;;;;;;15.50;99.90;;;;;;5093939;28;19912;-74
2022/10/17 12:33:36;;;;;;;;;;;15.70;99.90;;;;;;5085259;28;19928;-74
2022/10/17 12:36:32;;;;;;;;;;;15.90;99.90;;;;;;5073057;28;19920;-75
2022/10/17 12:39:00;;;;;;;;;;;16.10;99.90;;;;;;5062136;28;19920;-74
2022/10/17 12:41:38;;;;;;;;;;;16.30;99.90;;;;;;5093846;28;20008;-76
2022/10/17 12:44:13;;;;;;;;;;;16.40;99.90;;;;;;5078436;28;19965;-76
2022/10/17 12:46:42;;;;;;;;;;;16.60;99.90;;;;;;5068536;28;19912;-76
2022/10/17 12:49:27;;;;;;;;;;;16.70;99.90;;;;;;5090270;28;20316;-76
2022/10/17 12:52:11;;;;;;;;;;;16.70;99.90;;;;;;5088746;28;19912;-75
2022/10/17 12:54:38;;;;;;;;;;;16.80;99.90;;;;;;5071469;28;19912;-75
2022/10/17 12:57:12;;;;;;;;;;;16.90;99.90;;;;;;5089212;28;19916;-77
2022/10/17 12:59:38;;;;;;;;;;;16.90;99.90;;;;;;5073025;28;19944;-77
2022/10/17 13:02:11;;;;;;;;;;;16.90;99.90;;;;;;5075244;28;20013;-76
2022/10/17 13:04:36;;;;;;;;;;;16.90;99.90;;;;;;5084483;28;19912;-75
2022/10/17 13:07:02;;;;;;;;;;;16.90;99.90;;;;;;5095957;28;19916;-75
2022/10/17 13:09:28;;;;;;;;;;;17.00;99.90;;;;;;5092927;28;20267;-78
2022/10/17 13:11:56;;;;;;;;;;;17.00;99.90;;;;;;5068376;28;20325;-77
2022/10/17 13:14:22;;;;;;;;;;;16.90;99.90;;;;;;5072538;28;19994;-75
2022/10/17 13:16:54;;;;;;;;;;;17.00;99.90;;;;;;5100945;28;19923;-76
2022/10/17 13:19:22;;;;;;;;;;;17.00;99.90;;;;;;5095097;28;19916;-76
2022/10/17 13:22:01;;;;;;;;;;;16.90;99.90;;;;;;5078503;28;19916;-76
2022/10/17 13:24:28;;;;;;;;;;;17.00;99.90;;;;;;5092292;28;20219;-76
2022/10/17 13:26:54;;;;;;;;;;;17.00;99.90;;;;;;5095958;28;19912;-76
2022/10/17 13:29:20;;;;;;;;;;;17.00;99.90;;;;;;5097691;28;19926;-77
2022/10/17 13:31:51;;;;;;;;;;;17.00;99.90;;;;;;5077721;28;19920;-76
2022/10/17 13:34:17;;;;;;;;;;;17.10;99.90;;;;;;5088383;28;19922;-77
2022/10/17 13:36:45;;;;;;;;;;;17.00;99.90;;;;;;5094525;28;19927;-77
2022/10/17 13:39:13;;;;;;;;;;;17.00;99.90;;;;;;5087298;28;19962;-77
2022/10/17 13:41:39;;;;;;;;;;;17.00;99.90;;;;;;5075602;28;19957;-76
2022/10/17 13:44:16;;;;;;;;;;;17.00;99.90;;;;;;5088456;28;19912;-76
2022/10/17 13:46:43;;;;;;;;;;;16.90;99.90;;;;;;5084132;28;19977;-77
2022/10/17 13:49:10;;;;;;;;;;;16.90;99.90;;;;;;5068022;28;20007;-76
2022/10/17 13:51:36;;;;;;;;;;;16.90;99.90;;;;;;5088595;28;20200;-77
2022/10/17 13:54:15;;;;;;;;;;;16.80;99.90;;;;;;5093087;28;19915;-76
2022/10/17 13:56:41;;;;;;;;;;;16.80;99.90;;;;;;5092396;28;19989;-76
2022/10/17 13:59:18;;;;;;;;;;;16.80;99.90;;;;;;5089992;28;20316;-79
2022/10/17 14:01:44;;;;;;;;;;;16.80;99.90;;;;;;5066910;28;19918;-77
2022/10/17 14:04:10;;;;;;;;;;;16.80;99.90;;;;;;5081333;28;20240;-76
2022/10/17 14:06:44;;;;;;;;;;;16.80;99.90;;;;;;5085350;28;20311;-76
2022/10/17 14:09:29;;;;;;;;;;;16.90;99.90;;;;;;5071484;28;19970;-76
2022/10/17 14:12:21;;;;;;;;;;;16.90;99.90;;;;;;5090395;28;19920;-76
2022/10/17 14:14:49;;;;;;;;;;;16.90;99.90;;;;;;5088445;28;19923;-76
2022/10/17 14:17:25;;;;;;;;;;;16.90;99.90;;;;;;5091951;28;19927;-76
2022/10/17 14:19:56;;;;;;;;;;;16.90;99.90;;;;;;5094257;28;19924;-75
2022/10/17 14:22:21;;;;;;;;;;;16.90;99.90;;;;;;5086332;28;19919;-76
2022/10/17 14:24:52;;;;;;;;;;;16.90;99.90;;;;;;5098296;28;19912;-75